KLAA/LAA METAR and TAF weather

Enter ICAO airport designator
Station Type Date Time Source
KLAA METAR 2019/02/21 15:53 UTC NOAA

KLAA 211553Z AUTO 00000KT 10SM CLR M04/M08 A2980 RMK AO2 SLP118 T10441078


Station Type Date Time Source
KLAA Decoded METAR 2019/02/21 15:53 UTC NOAA

LAMAR MUNICIPAL AIRPORT, CO, United States (KLAA) 38-04N 102-41W 1119M
Feb 21, 2019 - 10:53 AM EST / 2019.02.21 1553 UTC
Wind: Calm:0
Visibility: 10 mile(s):0
Sky conditions: clear
Temperature: 24.1 F (-4.4 C)
Dew Point: 18.0 F (-7.8 C)
Relative Humidity: 77%
Pressure (altimeter): 29.8 in. Hg (1009 hPa)
ob: KLAA 211553Z AUTO 00000KT 10SM CLR M04/M08 A2980 RMK AO2 SLP118 T10441078
cycle: 16

Station Type Date Time Source
KLAA TAF UTC NOAA

Error!


Example: see airport list